Time;durP1;ratioP1;P1;durP2;ratioP2;P2;SDS_P1;SDS_P2;PMS_P1;PMS_P2;Temp;Humidity;BMP_temperature;BMP_pressure;BME280_temperature;BME280_humidity;BME280_pressure;Samples;Min_cycle;Max_cycle;Signal;HPM_P1;HPM_P2
2023/04/15 05:35:31;;;;;;;;;;;;;;;8.37;71.73;97037.56;5297923;23;19953;-65
2023/04/15 05:37:57;;;;;;;;;;;;;;;8.45;72.46;97040.44;4965082;28;20040;-65
2023/04/15 05:40:22;;;;;;;;;;;;;;;8.57;73.18;97034.25;4970292;28;20445;-65
2023/04/15 05:42:47;;;;;;;;;;;;;;;8.72;71.70;97037.44;4969434;28;20287;-65
2023/04/15 05:45:12;;;;;;;;;;;;;;;8.82;71.28;97045.38;4966018;28;19921;-65
2023/04/15 05:47:38;;;;;;;;;;;;;;;8.87;70.80;97051.06;4957329;28;19937;-65
2023/04/15 05:50:03;;;;;;;;;;;;;;;9.02;71.51;97044.59;4958473;28;19950;-65
2023/04/15 05:52:29;;;;;;;;;;;;;;;9.16;70.18;97052.16;4954877;28;20025;-65
2023/04/15 05:54:55;;;;;;;;;;;;;;;9.30;70.61;97050.22;4959468;28;19944;-65
2023/04/15 05:57:20;;;;;;;;;;;;;;;9.35;68.10;97053.28;4961327;28;19937;-64
2023/04/15 05:59:45;;;;;;;;;;;;;;;9.38;69.12;97047.78;4965974;28;20322;-65
2023/04/15 06:02:11;;;;;;;;;;;;;;;9.35;67.63;97051.47;4959611;28;19919;-65
2023/04/15 06:04:36;;;;;;;;;;;;;;;9.42;68.42;97052.63;4956846;28;19921;-64
2023/04/15 06:07:01;;;;;;;;;;;;;;;9.52;68.93;97055.34;4962708;28;19918;-65
2023/04/15 06:09:27;;;;;;;;;;;;;;;9.63;69.10;97055.28;4960661;28;20303;-65
2023/04/15 06:11:53;;;;;;;;;;;;;;;9.67;67.69;97056.69;4955715;28;19918;-65
2023/04/15 06:14:18;;;;;;;;;;;;;;;9.75;69.03;97054.25;4956337;28;20009;-66
2023/04/15 06:16:43;;;;;;;;;;;;;;;9.79;68.20;97060.06;4955932;28;20372;-66
2023/04/15 06:19:08;;;;;;;;;;;;;;;9.85;67.05;97056.13;4954726;28;20434;-65
2023/04/15 06:21:33;;;;;;;;;;;;;;;9.68;66.56;97053.13;4957950;28;20416;-63
2023/04/15 06:24:00;;;;;;;;;;;;;;;9.69;67.23;97054.75;4964265;28;19917;-62
2023/04/15 06:26:26;;;;;;;;;;;;;;;9.80;69.11;97056.50;4968277;28;19926;-65
2023/04/15 06:28:51;;;;;;;;;;;;;;;9.77;66.96;97053.28;4973701;28;19918;-63
2023/04/15 06:31:16;;;;;;;;;;;;;;;9.66;66.71;97052.41;4966291;28;19918;-63
2023/04/15 06:33:41;;;;;;;;;;;;;;;9.59;65.64;97053.03;4971258;28;19918;-63
2023/04/15 06:36:07;;;;;;;;;;;;;;;9.42;65.81;97057.03;4967681;28;20579;-63
2023/04/15 06:38:32;;;;;;;;;;;;;;;9.37;65.43;97051.38;4971914;28;20376;-66
2023/04/15 06:40:57;;;;;;;;;;;;;;;9.28;65.56;97061.63;4968892;28;20311;-64
2023/04/15 06:43:23;;;;;;;;;;;;;;;9.27;65.38;97054.72;4950056;28;19918;-64
2023/04/15 06:45:48;;;;;;;;;;;;;;;9.27;66.17;97059.13;4969118;28;19927;-65
2023/04/15 06:48:13;;;;;;;;;;;;;;;9.31;65.68;97051.88;4954295;28;19973;-64
2023/04/15 06:50:38;;;;;;;;;;;;;;;9.32;65.09;97059.59;4962181;28;19918;-62
2023/04/15 06:53:04;;;;;;;;;;;;;;;9.34;65.58;97057.69;4969477;28;19914;-63
2023/04/15 06:55:30;;;;;;;;;;;;;;;9.20;64.64;97064.03;4957153;28;19918;-64
2023/04/15 06:57:55;;;;;;;;;;;;;;;9.18;64.81;97055.47;4962840;28;19918;-64
2023/04/15 07:00:21;;;;;;;;;;;;;;;9.20;65.17;97058.81;4973347;28;19914;-66
2023/04/15 07:02:46;;;;;;;;;;;;;;;9.17;64.91;97056.44;4968345;28;20355;-65
2023/04/15 07:05:11;;;;;;;;;;;;;;;9.13;65.52;97057.63;4957100;28;19918;-64
2023/04/15 07:07:37;;;;;;;;;;;;;;;9.09;65.57;97053.63;4970664;28;19918;-64
2023/04/15 07:10:02;;;;;;;;;;;;;;;9.16;65.07;97057.41;4974319;28;19921;-64
2023/04/15 07:12:27;;;;;;;;;;;;;;;9.10;65.54;97057.88;4968000;28;20378;-64
2023/04/15 07:14:53;;;;;;;;;;;;;;;9.12;64.96;97056.00;4974216;28;20287;-64
2023/04/15 07:17:18;;;;;;;;;;;;;;;9.15;65.99;97055.75;4969376;28;19926;-62
2023/04/15 07:19:43;;;;;;;;;;;;;;;9.13;65.77;97068.09;4960974;28;19925;-63
2023/04/15 07:22:08;;;;;;;;;;;;;;;9.09;65.55;97061.47;4962441;28;19925;-63
2023/04/15 07:24:34;;;;;;;;;;;;;;;9.14;65.41;97058.47;4960054;28;19914;-64
2023/04/15 07:27:00;;;;;;;;;;;;;;;9.12;65.59;97058.59;4961251;28;20451;-64
2023/04/15 07:29:25;;;;;;;;;;;;;;;9.12;65.82;97071.69;4958743;28;20523;-65
2023/04/15 07:31:51;;;;;;;;;;;;;;;9.17;65.78;97064.28;4958025;28;20414;-66
2023/04/15 07:34:17;;;;;;;;;;;;;;;9.22;65.60;97067.38;4964068;28;19940;-66
2023/04/15 07:36:43;;;;;;;;;;;;;;;9.27;65.67;97070.44;4950325;28;19934;-65
2023/04/15 07:39:08;;;;;;;;;;;;;;;9.34;65.27;97075.16;4962140;28;19922;-66
2023/04/15 07:41:33;;;;;;;;;;;;;;;9.42;65.45;97076.19;4959711;28;19922;-66
2023/04/15 07:43:58;;;;;;;;;;;;;;;9.46;65.20;97066.31;4961004;28;20375;-65
2023/04/15 07:46:26;;;;;;;;;;;;;;;9.55;64.38;97068.16;4960239;28;20403;-65
2023/04/15 07:48:51;;;;;;;;;;;;;;;9.61;64.08;97072.91;4962111;28;19915;-66
2023/04/15 07:51:16;;;;;;;;;;;;;;;9.66;64.18;97073.34;4957602;28;19925;-66
2023/04/15 07:53:41;;;;;;;;;;;;;;;9.72;63.91;97077.25;4955387;28;19918;-68
2023/04/15 07:56:07;;;;;;;;;;;;;;;9.92;64.18;97086.06;4960867;28;19933;-67
2023/04/15 07:58:32;;;;;;;;;;;;;;;9.99;62.78;97076.75;4973197;28;19918;-65
2023/04/15 08:00:57;;;;;;;;;;;;;;;10.06;61.52;97077.88;4972763;28;19914;-65
2023/04/15 08:03:22;;;;;;;;;;;;;;;10.07;61.82;97076.91;4962660;28;19940;-65
2023/04/15 08:05:48;;;;;;;;;;;;;;;10.11;62.29;97069.63;4971580;28;20021;-66
2023/04/15 08:08:13;;;;;;;;;;;;;;;10.11;61.27;97065.22;4960642;28;19925;-66
2023/04/15 08:10:38;;;;;;;;;;;;;;;10.09;61.05;97076.81;4963159;28;19962;-67
2023/04/15 08:13:03;;;;;;;;;;;;;;;10.03;59.98;97067.66;4965605;28;19950;-67
2023/04/15 08:15:28;;;;;;;;;;;;;;;10.13;61.17;97068.53;4955578;28;19973;-66
2023/04/15 08:17:54;;;;;;;;;;;;;;;10.07;61.05;97073.47;4952149;28;19918;-66
2023/04/15 08:20:19;;;;;;;;;;;;;;;9.96;61.78;97074.38;4956268;28;19922;-66
2023/04/15 08:22:46;;;;;;;;;;;;;;;9.89;62.66;97073.22;4961970;28;20033;-66
2023/04/15 08:25:11;;;;;;;;;;;;;;;9.81;62.55;97073.88;4965012;28;19918;-66
2023/04/15 08:27:37;;;;;;;;;;;;;;;9.84;61.83;97070.16;4970048;28;19918;-67
2023/04/15 08:30:03;;;;;;;;;;;;;;;9.67;62.11;97082.03;4960426;28;19925;-65
2023/04/15 08:32:28;;;;;;;;;;;;;;;9.44;63.69;97090.00;4954836;28;20052;-67
2023/04/15 08:34:53;;;;;;;;;;;;;;;9.39;64.01;97091.31;4958060;28;19997;-66
2023/04/15 08:37:19;;;;;;;;;;;;;;;9.19;64.26;97085.94;4968550;28;20292;-67
2023/04/15 08:39:45;;;;;;;;;;;;;;;9.26;64.86;97089.72;4963371;28;20339;-67
2023/04/15 08:42:10;;;;;;;;;;;;;;;9.18;65.80;97097.31;4961836;28;19918;-67
2023/04/15 08:44:35;;;;;;;;;;;;;;;9.13;65.27;97091.66;4953911;28;19954;-66
2023/04/15 08:47:04;;;;;;;;;;;;;;;8.93;66.06;97087.19;4962398;28;19990;-67
2023/04/15 08:49:30;;;;;;;;;;;;;;;8.79;66.98;97096.13;4964663;28;20407;-66
2023/04/15 08:51:56;;;;;;;;;;;;;;;8.87;67.58;97092.88;4960263;28;19995;-66
2023/04/15 08:54:22;;;;;;;;;;;;;;;9.03;67.47;97088.94;4967929;28;20000;-66
2023/04/15 08:56:47;;;;;;;;;;;;;;;9.19;66.93;97092.94;4951604;28;20013;-66
2023/04/15 08:59:13;;;;;;;;;;;;;;;9.30;65.84;97099.94;4960320;28;19921;-66
2023/04/15 09:01:39;;;;;;;;;;;;;;;9.24;66.38;97102.06;4956731;28;20371;-65
2023/04/15 09:04:06;;;;;;;;;;;;;;;9.27;65.48;97104.44;4957951;28;19914;-66
2023/04/15 09:06:31;;;;;;;;;;;;;;;9.24;66.44;97102.06;4953288;28;19926;-67
2023/04/15 09:08:57;;;;;;;;;;;;;;;9.31;66.08;97102.41;4956241;28;19918;-66
2023/04/15 09:11:22;;;;;;;;;;;;;;;9.32;66.51;97100.63;4961447;28;19914;-66
2023/04/15 09:13:48;;;;;;;;;;;;;;;9.39;65.97;97104.41;4958495;28;19925;-66
2023/04/15 09:16:13;;;;;;;;;;;;;;;9.43;66.20;97096.19;4964338;28;20265;-66
2023/04/15 09:18:38;;;;;;;;;;;;;;;9.45;65.78;97098.69;4958424;28;20351;-67
2023/04/15 09:21:04;;;;;;;;;;;;;;;9.46;66.14;97110.78;4964875;28;19914;-65
2023/04/15 09:23:30;;;;;;;;;;;;;;;9.41;64.73;97103.31;4958020;28;19926;-66
2023/04/15 09:25:55;;;;;;;;;;;;;;;9.13;64.12;97115.19;4963657;28;19921;-66
2023/04/15 09:28:24;;;;;;;;;;;;;;;9.04;63.38;97115.91;4953650;28;19925;-67
2023/04/15 09:30:59;;;;;;;;;;;;;;;8.89;63.85;97125.00;4959374;28;19914;-66
2023/04/15 09:33:26;;;;;;;;;;;;;;;8.94;64.58;97123.66;4965024;28;19925;-66
2023/04/15 09:35:57;;;;;;;;;;;;;;;8.99;64.38;97128.53;4962612;28;19929;-66
2023/04/15 09:38:23;;;;;;;;;;;;;;;8.98;63.46;97126.84;4960147;28;19919;-68
2023/04/15 09:40:48;;;;;;;;;;;;;;;8.98;63.42;97132.09;4960307;28;20518;-64
2023/04/15 09:43:15;;;;;;;;;;;;;;;8.78;63.93;97131.88;4966394;28;20388;-65
2023/04/15 09:45:45;;;;;;;;;;;;;;;8.76;63.64;97139.00;4963891;28;19914;-65
2023/04/15 09:48:15;;;;;;;;;;;;;;;8.76;65.22;97132.97;4954792;28;19914;-64
2023/04/15 09:50:41;;;;;;;;;;;;;;;8.93;64.65;97142.09;4978784;28;19993;-65
2023/04/15 09:53:07;;;;;;;;;;;;;;;8.91;64.44;97147.47;4957266;28;19969;-65
2023/04/15 09:55:33;;;;;;;;;;;;;;;8.91;64.74;97137.00;4962916;28;19942;-64
2023/04/15 09:57:58;;;;;;;;;;;;;;;8.96;64.93;97134.00;4958406;28;19922;-65
2023/04/15 10:00:23;;;;;;;;;;;;;;;9.04;64.43;97142.06;4963594;28;20364;-65
2023/04/15 10:02:49;;;;;;;;;;;;;;;9.09;64.45;97128.66;4958888;28;20001;-65
2023/04/15 10:05:15;;;;;;;;;;;;;;;9.07;64.47;97133.97;4977628;28;20017;-66
2023/04/15 10:07:40;;;;;;;;;;;;;;;8.97;64.35;97146.13;4955260;28;19914;-66
2023/04/15 10:10:05;;;;;;;;;;;;;;;8.90;65.75;97150.19;4970048;28;20446;-65
2023/04/15 10:12:32;;;;;;;;;;;;;;;8.91;67.54;97146.59;4969705;28;20372;-64
2023/04/15 10:14:58;;;;;;;;;;;;;;;8.91;67.64;97147.47;4963904;28;19961;-66
2023/04/15 10:17:23;;;;;;;;;;;;;;;8.90;68.95;97155.41;4959122;28;19954;-65
2023/04/15 10:19:48;;;;;;;;;;;;;;;8.82;67.83;97156.00;4962426;28;19918;-65
2023/04/15 10:22:14;;;;;;;;;;;;;;;8.85;69.13;97162.78;4954411;28;19919;-66
2023/04/15 10:24:39;;;;;;;;;;;;;;;8.90;69.89;97156.22;4967729;28;19929;-66
2023/04/15 10:27:04;;;;;;;;;;;;;;;8.88;69.11;97165.16;4965220;28;20001;-67
2023/04/15 10:29:29;;;;;;;;;;;;;;;8.87;68.75;97171.34;4947934;28;19925;-65
2023/04/15 10:31:55;;;;;;;;;;;;;;;8.78;69.84;97170.28;4955059;28;19918;-66
2023/04/15 10:34:20;;;;;;;;;;;;;;;8.80;70.11;97170.97;4953900;28;19925;-64
2023/04/15 10:36:46;;;;;;;;;;;;;;;8.85;68.72;97162.78;4962621;28;19918;-67
2023/04/15 10:39:37;;;;;;;;;;;;;;;8.92;69.39;97163.97;4961613;28;20399;-67
2023/04/15 10:42:05;;;;;;;;;;;;;;;9.09;68.90;97170.50;4960747;28;19918;-66
2023/04/15 10:44:30;;;;;;;;;;;;;;;9.00;68.52;97166.81;4963042;28;19914;-67
2023/04/15 10:46:55;;;;;;;;;;;;;;;9.00;68.93;97172.03;4957067;28;20283;-66
2023/04/15 10:49:24;;;;;;;;;;;;;;;8.93;68.81;97170.88;4937344;28;19914;-66
2023/04/15 10:51:53;;;;;;;;;;;;;;;8.93;67.98;97170.88;4953466;28;19923;-66
2023/04/15 10:54:24;;;;;;;;;;;;;;;8.89;69.27;97179.91;4961495;28;19914;-65
2023/04/15 10:57:07;;;;;;;;;;;;;;;9.05;69.16;97167.28;4961164;28;19926;-66
2023/04/15 10:59:36;;;;;;;;;;;;;;;9.23;68.64;97157.16;4957087;28;19950;-68
2023/04/15 11:02:04;;;;;;;;;;;;;;;9.55;68.59;97161.59;4960679;28;19925;-67
2023/04/15 11:04:49;;;;;;;;;;;;;;;9.65;67.63;97158.09;4955538;28;19915;-67
2023/04/15 11:07:14;;;;;;;;;;;;;;;9.65;65.92;97155.47;4960777;28;20317;-67
2023/04/15 11:09:39;;;;;;;;;;;;;;;9.69;67.21;97161.28;4955277;28;20651;-67
2023/04/15 11:12:08;;;;;;;;;;;;;;;9.77;66.43;97166.72;4972928;28;19918;-67
2023/04/15 11:14:34;;;;;;;;;;;;;;;9.75;67.36;97166.84;4970398;28;19914;-67
2023/04/15 11:17:00;;;;;;;;;;;;;;;9.80;66.39;97166.47;4962742;28;20045;-66
2023/04/15 11:19:25;;;;;;;;;;;;;;;9.57;66.72;97165.75;4955898;28;20439;-67
2023/04/15 11:21:51;;;;;;;;;;;;;;;9.63;66.66;97175.69;4962336;28;19918;-67
2023/04/15 11:24:25;;;;;;;;;;;;;;;9.57;66.30;97175.41;4958308;28;19918;-65
2023/04/15 11:26:51;;;;;;;;;;;;;;;9.66;65.76;97178.06;4955297;28;20001;-63
2023/04/15 11:29:16;;;;;;;;;;;;;;;9.53;65.66;97180.00;4955074;28;19965;-65
2023/04/15 11:31:44;;;;;;;;;;;;;;;9.49;65.41;97182.03;4962753;28;19922;-63
2023/04/15 11:34:09;;;;;;;;;;;;;;;9.54;65.04;97184.31;4959903;28;19965;-63
2023/04/15 11:36:35;;;;;;;;;;;;;;;9.58;66.36;97185.72;4962469;28;19926;-64
2023/04/15 11:39:00;;;;;;;;;;;;;;;9.57;66.84;97180.63;4960199;28;19919;-63
2023/04/15 11:41:25;;;;;;;;;;;;;;;9.54;65.97;97184.31;4962472;28;19918;-63
2023/04/15 11:43:51;;;;;;;;;;;;;;;9.66;66.10;97180.69;4960320;28;20303;-64
2023/04/15 11:46:16;;;;;;;;;;;;;;;9.64;65.25;97190.47;4958101;28;19919;-63
2023/04/15 11:48:42;;;;;;;;;;;;;;;9.53;65.28;97190.47;4954947;28;20464;-63
2023/04/15 11:51:08;;;;;;;;;;;;;;;9.52;65.76;97194.91;4961252;28;19918;-63
2023/04/15 11:53:42;;;;;;;;;;;;;;;9.40;65.01;97193.28;4958490;28;19989;-64
2023/04/15 11:56:08;;;;;;;;;;;;;;;9.20;65.57;97199.25;4964976;28;20323;-63
2023/04/15 11:58:34;;;;;;;;;;;;;;;9.06;66.75;97199.50;4945841;28;20409;-63
2023/04/15 12:01:00;;;;;;;;;;;;;;;9.05;66.77;97196.06;4967065;28;19918;-64
2023/04/15 12:03:26;;;;;;;;;;;;;;;9.04;67.30;97195.22;4960805;28;19919;-64
2023/04/15 12:06:13;;;;;;;;;;;;;;;9.14;67.26;97200.56;4952461;28;19938;-64
2023/04/15 12:08:51;;;;;;;;;;;;;;;9.13;66.70;97196.28;4954809;28;19973;-65
2023/04/15 12:11:16;;;;;;;;;;;;;;;9.18;66.08;97201.16;4973319;28;19914;-64
2023/04/15 12:13:48;;;;;;;;;;;;;;;9.21;66.38;97204.34;4963977;28;19932;-64
2023/04/15 12:16:19;;;;;;;;;;;;;;;9.19;66.35;97206.28;4972408;28;20395;-64
2023/04/15 12:18:46;;;;;;;;;;;;;;;9.16;66.50;97196.06;4971468;28;20291;-64
2023/04/15 12:21:11;;;;;;;;;;;;;;;9.20;66.06;97213.16;4973450;28;19914;-63
2023/04/15 12:23:37;;;;;;;;;;;;;;;9.13;66.37;97211.97;4969667;28;19918;-63
2023/04/15 12:26:08;;;;;;;;;;;;;;;9.10;67.00;97220.06;4973289;28;19914;-63
2023/04/15 12:28:35;;;;;;;;;;;;;;;9.10;66.49;97221.84;4972265;28;20358;-63
2023/04/15 12:31:05;;;;;;;;;;;;;;;9.02;66.65;97219.84;4973175;28;19918;-63
2023/04/15 12:33:33;;;;;;;;;;;;;;;8.89;67.28;97226.97;4970323;28;20018;-63
2023/04/15 12:35:58;;;;;;;;;;;;;;;8.82;67.72;97221.38;4973004;28;19929;-63
2023/04/15 12:38:24;;;;;;;;;;;;;;;8.91;67.90;97225.06;4968823;28;19992;-62
2023/04/15 12:40:50;;;;;;;;;;;;;;;9.05;67.12;97224.84;4971824;28;20008;-64
2023/04/15 12:43:15;;;;;;;;;;;;;;;9.25;67.03;97233.72;4970353;28;20611;-63
2023/04/15 12:45:40;;;;;;;;;;;;;;;9.35;66.65;97236.44;4971864;28;20339;-64
2023/04/15 12:48:08;;;;;;;;;;;;;;;9.32;66.93;97240.13;4954770;28;20344;-64
2023/04/15 12:50:33;;;;;;;;;;;;;;;9.30;66.47;97242.06;4975116;28;19918;-63
2023/04/15 12:52:58;;;;;;;;;;;;;;;9.20;66.86;97241.94;4974169;28;19946;-63
2023/04/15 12:55:23;;;;;;;;;;;;;;;9.08;67.20;97242.88;4976844;28;19918;-64
2023/04/15 12:57:48;;;;;;;;;;;;;;;8.99;67.64;97251.47;4971400;28;19926;-63
2023/04/15 13:00:14;;;;;;;;;;;;;;;8.96;67.93;97249.91;4972239;28;19969;-64
2023/04/15 13:02:39;;;;;;;;;;;;;;;9.04;68.05;97246.69;4972536;28;19922;-63
2023/04/15 13:05:05;;;;;;;;;;;;;;;9.14;68.04;97244.22;4966891;28;20005;-64
2023/04/15 13:07:30;;;;;;;;;;;;;;;9.13;67.22;97256.47;4967120;28;20017;-63
2023/04/15 13:09:55;;;;;;;;;;;;;;;9.09;67.17;97259.44;4975322;28;19914;-63
2023/04/15 13:12:21;;;;;;;;;;;;;;;9.12;67.45;97260.03;4974890;28;19924;-63
2023/04/15 13:14:46;;;;;;;;;;;;;;;9.13;67.66;97253.00;4973538;28;20103;-62
2023/04/15 13:17:11;;;;;;;;;;;;;;;9.07;68.53;97262.16;4969251;28;19929;-63
2023/04/15 13:19:37;;;;;;;;;;;;;;;9.01;69.07;97260.00;4976681;28;19914;-63
2023/04/15 13:22:02;;;;;;;;;;;;;;;9.03;68.31;97264.19;4971255;28;20406;-63
2023/04/15 13:24:27;;;;;;;;;;;;;;;9.03;69.07;97264.19;4971946;28;19980;-63
2023/04/15 13:26:53;;;;;;;;;;;;;;;9.04;68.45;97257.16;4971193;28;19922;-62
2023/04/15 13:29:19;;;;;;;;;;;;;;;9.02;68.06;97256.47;4975972;28;20008;-63
2023/04/15 13:31:44;;;;;;;;;;;;;;;9.10;68.04;97264.53;4972495;28;19926;-64
2023/04/15 13:34:09;;;;;;;;;;;;;;;9.16;67.64;97274.53;4972760;28;20876;-62
2023/04/15 13:36:35;;;;;;;;;;;;;;;9.17;67.69;97278.81;4970103;28;20444;-63
2023/04/15 13:39:00;;;;;;;;;;;;;;;9.23;67.47;97277.50;4973020;28;20386;-63
2023/04/15 13:41:25;;;;;;;;;;;;;;;9.19;68.01;97271.69;4972282;28;19921;-64
2023/04/15 13:43:50;;;;;;;;;;;;;;;9.14;68.05;97279.03;4975216;28;19940;-64
2023/04/15 13:46:16;;;;;;;;;;;;;;;9.11;67.72;97283.69;4974000;28;20404;-63
2023/04/15 13:48:41;;;;;;;;;;;;;;;9.04;68.75;97286.75;4975761;28;20394;-63
2023/04/15 13:51:06;;;;;;;;;;;;;;;8.94;68.77;97284.97;4974965;28;20450;-63
2023/04/15 13:53:32;;;;;;;;;;;;;;;8.93;69.37;97291.16;4972013;28;20312;-62
2023/04/15 13:55:57;;;;;;;;;;;;;;;8.94;70.02;97292.81;4974391;28;20264;-63
2023/04/15 13:58:22;;;;;;;;;;;;;;;8.99;70.28;97298.53;4972161;28;19918;-63
2023/04/15 14:00:47;;;;;;;;;;;;;;;9.04;70.89;97299.00;4967191;28;19921;-63
2023/04/15 14:03:12;;;;;;;;;;;;;;;9.11;71.46;97302.81;4969463;28;19918;-63
2023/04/15 14:05:38;;;;;;;;;;;;;;;9.06;71.42;97299.75;4970374;28;19918;-64
2023/04/15 14:08:03;;;;;;;;;;;;;;;9.03;72.32;97307.81;4968875;28;19925;-63
2023/04/15 14:10:28;;;;;;;;;;;;;;;8.98;73.39;97296.84;4965701;28;19926;-63
2023/04/15 14:12:53;;;;;;;;;;;;;;;8.96;71.78;97302.22;4960569;28;20016;-63
2023/04/15 14:15:19;;;;;;;;;;;;;;;8.93;71.92;97307.69;4963744;28;19962;-63
2023/04/15 14:17:44;;;;;;;;;;;;;;;8.80;72.43;97313.00;4963424;28;20001;-63
2023/04/15 14:20:09;;;;;;;;;;;;;;;8.71;73.21;97318.13;4959516;28;19926;-63
2023/04/15 14:22:34;;;;;;;;;;;;;;;8.64;73.70;97320.34;4955871;28;19921;-63
2023/04/15 14:25:00;;;;;;;;;;;;;;;8.59;73.54;97326.84;4954191;28;19941;-64
2023/04/15 14:27:25;;;;;;;;;;;;;;;8.56;73.66;97327.91;4966381;28;19953;-63
2023/04/15 14:29:52;;;;;;;;;;;;;;;8.59;72.24;97329.47;4956549;28;19918;-64
2023/04/15 14:32:17;;;;;;;;;;;;;;;8.47;72.99;97333.84;4955768;28;19915;-64
2023/04/15 14:34:42;;;;;;;;;;;;;;;8.44;74.01;97336.69;4959824;28;20388;-63
2023/04/15 14:37:08;;;;;;;;;;;;;;;8.41;74.22;97347.34;4967025;28;20435;-62
2023/04/15 14:39:33;;;;;;;;;;;;;;;8.48;73.78;97353.78;4960765;28;20360;-64
2023/04/15 14:41:58;;;;;;;;;;;;;;;8.41;74.35;97363.03;4958231;28;19954;-63
2023/04/15 14:44:24;;;;;;;;;;;;;;;8.39;75.42;97360.50;4965985;28;20395;-63
2023/04/15 14:46:49;;;;;;;;;;;;;;;8.38;76.01;97365.84;4959055;28;19925;-63
2023/04/15 14:49:15;;;;;;;;;;;;;;;8.38;77.25;97363.25;4964521;28;19973;-62
2023/04/15 14:51:40;;;;;;;;;;;;;;;8.39;77.89;97364.91;4960185;28;19918;-63
2023/04/15 14:54:05;;;;;;;;;;;;;;;8.37;77.89;97366.78;4962994;28;20017;-63
2023/04/15 14:56:30;;;;;;;;;;;;;;;8.38;77.72;97364.06;4966934;28;20020;-64
2023/04/15 14:58:56;;;;;;;;;;;;;;;8.32;78.54;97365.31;4972893;28;20020;-64
2023/04/15 15:01:21;;;;;;;;;;;;;;;8.32;78.83;97374.94;4965571;28;19914;-65
2023/04/15 15:03:46;;;;;;;;;;;;;;;8.32;78.85;97374.94;4967216;28;20006;-63
2023/04/15 15:06:12;;;;;;;;;;;;;;;8.33;79.12;97374.84;4973260;28;19918;-62
2023/04/15 15:08:37;;;;;;;;;;;;;;;8.39;79.12;97373.56;4967149;28;19918;-64
2023/04/15 15:11:02;;;;;;;;;;;;;;;8.45;78.48;97375.75;4961931;28;19924;-64
2023/04/15 15:13:27;;;;;;;;;;;;;;;8.42;78.55;97386.41;4970929;28;20037;-64
2023/04/15 15:15:53;;;;;;;;;;;;;;;8.44;78.96;97388.94;4974153;28;19953;-63
2023/04/15 15:18:18;;;;;;;;;;;;;;;8.42;79.38;97385.59;4973077;28;19973;-63
2023/04/15 15:20:43;;;;;;;;;;;;;;;8.42;78.67;97394.25;4967718;28;20430;-63
2023/04/15 15:23:09;;;;;;;;;;;;;;;8.40;79.15;97401.41;4974003;28;19922;-63
2023/04/15 15:25:34;;;;;;;;;;;;;;;8.41;78.08;97400.44;4965664;28;19918;-63
2023/04/15 15:27:59;;;;;;;;;;;;;;;8.38;78.80;97405.06;4965698;28;19926;-62
2023/04/15 15:30:24;;;;;;;;;;;;;;;8.40;79.04;97409.22;4960007;28;19921;-62
2023/04/15 15:32:50;;;;;;;;;;;;;;;8.40;79.30;97404.00;4968546;28;20006;-63
2023/04/15 15:35:15;;;;;;;;;;;;;;;8.37;79.44;97408.59;4965751;28;19992;-62
2023/04/15 15:37:40;;;;;;;;;;;;;;;8.36;80.43;97412.97;4970466;28;19924;-63
2023/04/15 15:40:06;;;;;;;;;;;;;;;8.35;80.26;97415.69;4956137;28;19918;-63
2023/04/15 15:42:31;;;;;;;;;;;;;;;8.27;80.58;97419.69;4970843;28;20335;-62
2023/04/15 15:44:57;;;;;;;;;;;;;;;8.21;81.76;97419.28;4961288;28;19925;-62
2023/04/15 15:47:22;;;;;;;;;;;;;;;8.15;81.70;97422.34;4966890;28;19914;-63
2023/04/15 15:49:47;;;;;;;;;;;;;;;8.10;82.41;97422.69;4964060;28;20069;-62
2023/04/15 15:52:12;;;;;;;;;;;;;;;8.13;81.93;97425.06;4956781;28;20004;-63
2023/04/15 15:54:40;;;;;;;;;;;;;;;8.10;83.05;97438.34;4958669;28;20005;-63
2023/04/15 15:57:06;;;;;;;;;;;;;;;8.09;82.53;97436.69;4948421;28;19930;-63
2023/04/15 15:59:32;;;;;;;;;;;;;;;8.08;82.15;97432.38;4958152;28;19918;-63
2023/04/15 16:01:57;;;;;;;;;;;;;;;8.00;83.37;97437.31;4958764;28;19922;-62
2023/04/15 16:04:22;;;;;;;;;;;;;;;8.00;83.37;97437.31;4956544;28;19926;-63
2023/04/15 16:06:47;;;;;;;;;;;;;;;7.98;83.29;97439.19;4973248;28;19918;-63
2023/04/15 16:09:12;;;;;;;;;;;;;;;7.93;84.50;97446.53;4966235;28;19926;-62
2023/04/15 16:11:38;;;;;;;;;;;;;;;7.92;84.78;97444.88;4970577;28;19922;-63
2023/04/15 16:14:03;;;;;;;;;;;;;;;7.94;85.46;97446.41;4966840;28;19918;-63
2023/04/15 16:16:28;;;;;;;;;;;;;;;7.97;84.70;97450.59;4974298;28;19922;-62
2023/04/15 16:18:54;;;;;;;;;;;;;;;7.97;85.17;97461.03;4966714;28;20709;-64
2023/04/15 16:21:19;;;;;;;;;;;;;;;7.90;84.98;97452.78;4968074;28;19934;-62
2023/04/15 16:23:44;;;;;;;;;;;;;;;7.93;86.04;97465.63;4959798;28;20347;-62
2023/04/15 16:26:10;;;;;;;;;;;;;;;7.96;85.00;97467.22;4976874;28;19953;-64
2023/04/15 16:28:35;;;;;;;;;;;;;;;7.95;84.62;97465.53;4970999;28;19961;-64
2023/04/15 16:31:01;;;;;;;;;;;;;;;7.87;85.25;97458.22;4970308;28;19957;-63
2023/04/15 16:33:26;;;;;;;;;;;;;;;7.85;85.66;97466.19;4964147;28;19925;-63
2023/04/15 16:35:51;;;;;;;;;;;;;;;7.88;85.52;97465.13;4968440;28;19918;-62
2023/04/15 16:38:17;;;;;;;;;;;;;;;7.88;85.60;97469.50;4962338;28;19926;-63
2023/04/15 16:40:42;;;;;;;;;;;;;;;7.88;85.82;97475.59;4959121;28;19981;-63
2023/04/15 16:43:10;;;;;;;;;;;;;;;7.83;85.58;97473.28;4963438;28;19918;-63
2023/04/15 16:45:35;;;;;;;;;;;;;;;7.80;86.22;97478.69;4964976;28;20005;-63
2023/04/15 16:48:00;;;;;;;;;;;;;;;7.79;85.95;97474.44;4967763;28;20002;-62
2023/04/15 16:50:26;;;;;;;;;;;;;;;7.81;87.02;97475.16;4973927;28;20016;-63
2023/04/15 16:52:51;;;;;;;;;;;;;;;7.83;85.85;97481.09;4970981;28;20447;-63
2023/04/15 16:55:17;;;;;;;;;;;;;;;7.81;85.68;97483.00;4972485;28;19918;-63
2023/04/15 16:57:42;;;;;;;;;;;;;;;7.80;86.05;97491.75;4967143;28;20044;-63
2023/04/15 17:00:07;;;;;;;;;;;;;;;7.74;86.53;97489.59;4961612;28;19968;-63
2023/04/15 17:02:33;;;;;;;;;;;;;;;7.75;86.65;97493.84;4969877;28;19961;-64
2023/04/15 17:04:58;;;;;;;;;;;;;;;7.73;87.22;97498.34;4969519;28;19918;-64
2023/04/15 17:07:23;;;;;;;;;;;;;;;7.75;87.19;97500.84;4968087;28;19965;-63
2023/04/15 17:09:49;;;;;;;;;;;;;;;7.79;86.49;97508.38;4966145;28;20384;-63
2023/04/15 17:12:14;;;;;;;;;;;;;;;7.76;87.46;97503.34;4970309;28;20489;-63
2023/04/15 17:14:39;;;;;;;;;;;;;;;7.76;87.01;97508.56;4969334;28;19929;-64
2023/04/15 17:17:04;;;;;;;;;;;;;;;7.74;86.59;97515.69;4972969;28;20412;-64
2023/04/15 17:19:30;;;;;;;;;;;;;;;7.71;86.96;97518.50;4968722;28;20605;-63
2023/04/15 17:21:56;;;;;;;;;;;;;;;7.73;86.81;97526.22;4969051;28;19918;-63
2023/04/15 17:24:22;;;;;;;;;;;;;;;7.74;87.36;97528.75;4968234;28;20299;-64
2023/04/15 17:26:47;;;;;;;;;;;;;;;7.74;86.95;97527.88;4976186;28;19918;-64
2023/04/15 17:29:12;;;;;;;;;;;;;;;7.74;87.73;97536.56;4957543;28;19918;-64
2023/04/15 17:31:38;;;;;;;;;;;;;;;7.76;87.63;97537.28;4963132;28;20287;-64
2023/04/15 17:34:03;;;;;;;;;;;;;;;7.76;86.99;97539.91;4961341;28;19938;-64
2023/04/15 17:36:28;;;;;;;;;;;;;;;7.77;87.58;97538.13;4973157;28;20388;-63
2023/04/15 17:38:54;;;;;;;;;;;;;;;7.80;87.25;97536.13;4961819;28;20369;-64
2023/04/15 17:41:20;;;;;;;;;;;;;;;7.77;87.07;97541.56;4959427;28;19926;-65
2023/04/15 17:43:45;;;;;;;;;;;;;;;7.81;87.15;97547.41;4964044;28;19926;-64
2023/04/15 17:46:12;;;;;;;;;;;;;;;7.83;87.07;97541.16;4957875;28;19915;-63
2023/04/15 17:48:37;;;;;;;;;;;;;;;7.74;87.20;97549.63;4954353;28;20052;-64
2023/04/15 17:51:02;;;;;;;;;;;;;;;7.78;87.63;97552.88;4957127;28;20065;-65
2023/04/15 17:53:27;;;;;;;;;;;;;;;7.78;87.39;97564.13;4959761;28;19914;-62
2023/04/15 17:55:53;;;;;;;;;;;;;;;7.73;87.70;97560.97;4960849;28;19923;-63
2023/04/15 17:58:18;;;;;;;;;;;;;;;7.70;87.39;97563.78;4956033;28;20513;-63
2023/04/15 18:00:44;;;;;;;;;;;;;;;7.69;88.16;97563.91;4957820;28;19937;-63
2023/04/15 18:03:11;;;;;;;;;;;;;;;7.67;88.20;97566.59;4955591;28;21450;-64
2023/04/15 18:05:36;;;;;;;;;;;;;;;7.67;88.21;97573.59;4977240;28;20009;-64
